Time;durP1;ratioP1;P1;durP2;ratioP2;P2;SDS_P1;SDS_P2;PMS_P1;PMS_P2;Temp;Humidity;BMP_temperature;BMP_pressure;BME280_temperature;BME280_humidity;BME280_pressure;Samples;Min_cycle;Max_cycle;Signal;HPM_P1;HPM_P2
2020/12/28 00:02:20;;;;;;;0.10;0.10;;;13.00;44.10;;;;;;6263874;28;20043;-79
2020/12/28 00:05:22;;;;;;;0.32;0.30;;;13.00;44.20;;;;;;6235348;28;20034;-80
2020/12/28 00:08:23;;;;;;;0.28;0.15;;;13.00;44.40;;;;;;6246927;28;20037;-79
2020/12/28 00:11:24;;;;;;;1.60;0.40;;;12.90;44.90;;;;;;6216365;28;20050;-79
2020/12/28 00:14:26;;;;;;;0.10;0.10;;;12.90;44.70;;;;;;6243049;28;20104;-80
2020/12/28 00:17:26;;;;;;;0.22;0.15;;;12.90;45.10;;;;;;6259288;28;20025;-81
2020/12/28 00:20:29;;;;;;;0.32;0.10;;;12.90;45.50;;;;;;6259551;28;20033;-79
2020/12/28 00:23:29;;;;;;;0.00;0.00;;;12.80;45.80;;;;;;6259704;28;20047;-80
2020/12/28 00:26:45;;;;;;;0.15;0.10;;;12.80;46.30;;;;;;6258270;28;20050;-81
2020/12/28 00:29:46;;;;;;;0.10;0.10;;;12.80;46.20;;;;;;6243018;28;20363;-79
2020/12/28 00:32:48;;;;;;;0.52;0.10;;;12.80;46.40;;;;;;6255769;28;20044;-81
2020/12/28 00:35:49;;;;;;;0.57;0.32;;;12.70;46.80;;;;;;6240969;28;20517;-80
2020/12/28 00:38:50;;;;;;;0.22;0.10;;;12.70;47.30;;;;;;6249155;28;20052;-81
2020/12/28 00:41:50;;;;;;;0.43;0.10;;;12.60;47.80;;;;;;6241169;28;21422;-80
2020/12/28 00:44:52;;;;;;;0.43;0.43;;;12.50;48.50;;;;;;6238948;28;20367;-82
2020/12/28 00:47:53;;;;;;;1.05;0.20;;;12.40;48.80;;;;;;6235874;28;20037;-81
2020/12/28 00:50:54;;;;;;;5.57;0.47;;;12.40;49.20;;;;;;6234713;28;20036;-80
2020/12/28 00:53:55;;;;;;;1.35;0.15;;;12.40;49.40;;;;;;6223070;28;20034;-81
2020/12/28 00:56:57;;;;;;;0.30;0.30;;;12.30;49.80;;;;;;6205036;28;20463;-81
2020/12/28 00:59:58;;;;;;;0.55;0.20;;;12.20;50.00;;;;;;6223047;28;20038;-80
2020/12/28 01:03:14;;;;;;;0.15;0.10;;;12.20;50.20;;;;;;6220583;28;20033;-80
2020/12/28 01:06:33;;;;;;;0.52;0.25;;;12.20;50.50;;;;;;6234511;28;21168;-80
2020/12/28 01:10:04;;;;;;;0.20;0.20;;;12.10;50.50;;;;;;6240997;28;20049;-80
2020/12/28 01:13:07;;;;;;;1.08;0.30;;;12.20;50.70;;;;;;6224353;28;20042;-81
2020/12/28 01:16:10;;;;;;;0.15;0.10;;;12.10;50.90;;;;;;6224867;28;20048;-81
2020/12/28 01:19:12;;;;;;;3.55;0.30;;;12.10;51.10;;;;;;6223579;28;20041;-81
2020/12/28 01:22:14;;;;;;;0.98;0.15;;;12.10;51.10;;;;;;6201273;28;20038;-80
2020/12/28 01:25:16;;;;;;;1.25;0.65;;;12.10;51.30;;;;;;6240642;28;20042;-82
2020/12/28 01:28:28;;;;;;;0.25;0.20;;;12.10;51.20;;;;;;6222346;28;20040;-80
2020/12/28 01:31:29;;;;;;;0.00;0.00;;;12.10;51.20;;;;;;6204070;28;20371;-81
2020/12/28 01:34:39;;;;;;;0.00;0.00;;;12.10;51.30;;;;;;6220797;28;20068;-82
2020/12/28 01:37:40;;;;;;;0.70;0.20;;;12.10;51.20;;;;;;6223766;28;20037;-81
2020/12/28 01:40:41;;;;;;;0.22;0.15;;;12.10;51.10;;;;;;6227710;28;20064;-79
2020/12/28 01:44:00;;;;;;;1.05;0.30;;;12.20;50.90;;;;;;6197251;28;20049;-81
2020/12/28 01:47:02;;;;;;;1.17;0.17;;;12.30;50.70;;;;;;6218894;28;20519;-78
2020/12/28 01:50:06;;;;;;;1.20;0.20;;;12.30;50.50;;;;;;6220334;28;20033;-80
2020/12/28 01:53:07;;;;;;;0.10;0.10;;;12.40;50.40;;;;;;6216876;28;20037;-80
2020/12/28 01:56:12;;;;;;;0.10;0.10;;;12.40;50.30;;;;;;6249928;28;20056;-79
2020/12/28 01:59:17;;;;;;;0.22;0.20;;;12.40;50.30;;;;;;6249810;28;20097;-80
2020/12/28 02:02:25;;;;;;;0.03;0.00;;;12.50;50.20;;;;;;6263343;28;20041;-80
2020/12/28 02:05:26;;;;;;;0.10;0.10;;;12.50;50.10;;;;;;6240696;28;20461;-80
2020/12/28 02:08:28;;;;;;;1.10;0.10;;;12.50;50.10;;;;;;6241854;28;20461;-80
2020/12/28 02:11:30;;;;;;;0.20;0.10;;;12.50;49.90;;;;;;6256399;28;20868;-80
2020/12/28 02:14:31;;;;;;;0.73;0.40;;;12.60;50.00;;;;;;6245140;28;20120;-81
2020/12/28 02:17:52;;;;;;;0.10;0.10;;;12.60;49.70;;;;;;6245820;28;20393;-80
2020/12/28 02:21:05;;;;;;;0.15;0.05;;;12.60;49.60;;;;;;6260057;28;20079;-81
2020/12/28 02:24:08;;;;;;;1.13;0.20;;;12.70;49.60;;;;;;6223879;28;20029;-81
2020/12/28 02:27:14;;;;;;;0.73;0.30;;;12.70;49.70;;;;;;6237383;28;20044;-79
2020/12/28 02:30:15;;;;;;;0.38;0.20;;;12.70;49.70;;;;;;6226026;28;20030;-79
2020/12/28 02:33:40;;;;;;;0.10;0.00;;;12.70;49.70;;;;;;6238113;28;20382;-81
2020/12/28 02:36:50;;;;;;;1.30;0.30;;;12.70;49.90;;;;;;6234227;28;20125;-79
2020/12/28 02:39:52;;;;;;;0.10;0.10;;;12.60;50.00;;;;;;6235199;28;20064;-79
2020/12/28 02:42:53;;;;;;;0.68;0.30;;;12.60;50.10;;;;;;6244330;28;20041;-80
2020/12/28 02:46:12;;;;;;;0.00;0.00;;;12.60;50.30;;;;;;6243899;28;20033;-80
2020/12/28 02:49:32;;;;;;;0.63;0.10;;;12.60;50.50;;;;;;6243057;28;20033;-79
2020/12/28 02:53:02;;;;;;;0.13;0.10;;;12.60;50.60;;;;;;6191105;28;20046;-81
2020/12/28 02:56:21;;;;;;;1.05;0.10;;;12.60;50.80;;;;;;6233355;28;20033;-80
2020/12/28 02:59:54;;;;;;;0.40;0.32;;;12.50;51.00;;;;;;6171403;28;20042;-79
2020/12/28 03:03:14;;;;;;;0.73;0.20;;;12.50;51.10;;;;;;6166614;28;20039;-79
2020/12/28 03:06:33;;;;;;;0.17;0.10;;;12.50;51.10;;;;;;6167284;28;20046;-79
2020/12/28 03:09:53;;;;;;;0.05;0.05;;;12.50;51.20;;;;;;6145597;28;20046;-79
2020/12/28 03:13:13;;;;;;;0.10;0.10;;;12.50;51.40;;;;;;6154996;28;20110;-79
2020/12/28 03:16:32;;;;;;;2.08;0.10;;;12.40;51.40;;;;;;6154138;28;20035;-79
2020/12/28 03:20:11;;;;;;;1.02;0.20;;;12.40;51.60;;;;;;6095894;29;20040;-79
2020/12/28 03:23:30;;;;;;;0.38;0.10;;;12.40;51.60;;;;;;6090816;29;20059;-79
2020/12/28 03:26:50;;;;;;;0.05;0.05;;;12.40;51.60;;;;;;6082161;29;20143;-81
2020/12/28 03:30:09;;;;;;;0.10;0.10;;;12.40;51.70;;;;;;6112715;29;20044;-81
2020/12/28 03:33:29;;;;;;;0.00;0.00;;;12.40;51.60;;;;;;6105287;29;20130;-80
2020/12/28 03:36:49;;;;;;;0.15;0.10;;;12.40;51.50;;;;;;6163547;28;20051;-80
2020/12/28 03:40:08;;;;;;;0.00;0.00;;;12.40;51.30;;;;;;6189792;28;20042;-80
2020/12/28 03:43:28;;;;;;;0.40;0.13;;;12.50;51.20;;;;;;6183584;28;20050;-80
2020/12/28 03:46:49;;;;;;;0.03;0.03;;;12.60;51.10;;;;;;6151148;28;20035;-80
2020/12/28 03:50:08;;;;;;;0.55;0.00;;;12.60;50.90;;;;;;6179617;28;20375;-80
2020/12/28 03:53:27;;;;;;;0.00;0.00;;;12.60;50.70;;;;;;6234594;28;20045;-79
2020/12/28 03:56:46;;;;;;;0.00;0.00;;;12.70;50.60;;;;;;6231587;28;20466;-80
2020/12/28 04:00:06;;;;;;;0.00;0.00;;;12.70;50.40;;;;;;6229960;28;20038;-80
2020/12/28 04:03:36;;;;;;;0.00;0.00;;;12.80;50.30;;;;;;6234805;28;20045;-81
2020/12/28 04:06:55;;;;;;;0.00;0.00;;;12.80;50.20;;;;;;6226068;28;20497;-80
2020/12/28 04:10:14;;;;;;;0.17;0.00;;;12.90;50.30;;;;;;6238230;28;20049;-80
2020/12/28 04:13:33;;;;;;;;;;;12.80;50.10;;;;;;6231221;28;20367;-80
2020/12/28 04:16:35;;;;;;;0.30;0.05;;;12.90;50.10;;;;;;6231840;28;19925;-80
2020/12/28 04:19:37;;;;;;;0.00;0.00;;;12.90;50.00;;;;;;6220460;28;20045;-81
2020/12/28 04:22:38;;;;;;;0.40;0.05;;;12.90;50.00;;;;;;6249403;28;20087;-82
2020/12/28 04:25:39;;;;;;;0.10;0.08;;;12.90;50.10;;;;;;6254927;28;20351;-81
2020/12/28 04:28:39;;;;;;;0.05;0.00;;;12.90;50.10;;;;;;6257038;28;20029;-81
2020/12/28 04:31:41;;;;;;;0.00;0.00;;;12.90;50.10;;;;;;6256729;28;20150;-81
2020/12/28 04:34:42;;;;;;;0.00;0.00;;;12.90;50.00;;;;;;6254337;28;20030;-81
2020/12/28 04:37:43;;;;;;;0.15;0.10;;;13.00;50.00;;;;;;6258108;28;20454;-81
2020/12/28 04:40:44;;;;;;;1.42;0.22;;;13.00;50.00;;;;;;6245523;28;20052;-80
2020/12/28 04:43:45;;;;;;;0.10;0.10;;;13.00;49.80;;;;;;6258525;28;20037;-81
2020/12/28 04:46:46;;;;;;;0.35;0.20;;;13.00;49.80;;;;;;6255451;28;20033;-81
2020/12/28 04:49:47;;;;;;;1.42;0.28;;;13.00;49.90;;;;;;6230844;28;20107;-80
2020/12/28 04:52:48;;;;;;;0.60;0.22;;;12.90;50.20;;;;;;6254590;28;20528;-81
2020/12/28 04:55:49;;;;;;;0.95;0.15;;;12.80;50.50;;;;;;6237614;28;20038;-81
2020/12/28 04:58:50;;;;;;;0.03;0.03;;;12.80;50.70;;;;;;6209478;28;20429;-81
2020/12/28 05:01:52;;;;;;;0.15;0.10;;;12.70;50.80;;;;;;6227097;28;20045;-81
2020/12/28 05:05:04;;;;;;;0.52;0.30;;;12.60;51.20;;;;;;6227868;28;20460;-81
2020/12/28 05:08:05;;;;;;;0.43;0.25;;;12.50;51.50;;;;;;6247650;28;20124;-80
2020/12/28 05:11:07;;;;;;;0.00;0.00;;;12.50;51.60;;;;;;6227951;28;20037;-81
2020/12/28 05:14:15;;;;;;;0.10;0.03;;;12.50;51.50;;;;;;6231341;28;20038;-81
2020/12/28 05:17:16;;;;;;;0.10;0.10;;;12.50;51.30;;;;;;6236864;28;20029;-81
2020/12/28 05:20:22;;;;;;;0.00;0.00;;;12.50;51.40;;;;;;6263110;28;20490;-81
2020/12/28 05:23:23;;;;;;;0.15;0.15;;;12.50;51.40;;;;;;6246495;28;20036;-80
2020/12/28 05:26:24;;;;;;;0.00;0.00;;;12.50;51.50;;;;;;6246912;28;20029;-81
2020/12/28 05:29:27;;;;;;;0.85;0.30;;;12.50;51.60;;;;;;6247602;28;20052;-80
2020/12/28 05:32:28;;;;;;;0.75;0.55;;;12.40;51.60;;;;;;6256280;28;20033;-80
2020/12/28 05:35:32;;;;;;;0.93;0.10;;;12.40;51.80;;;;;;6255844;28;20033;-80
2020/12/28 05:38:36;;;;;;;0.10;0.10;;;12.30;52.00;;;;;;6238670;28;20037;-80
2020/12/28 05:41:37;;;;;;;0.65;0.30;;;12.20;52.20;;;;;;6250083;28;20498;-80
2020/12/28 05:44:40;;;;;;;0.63;0.30;;;12.20;52.40;;;;;;6232865;28;20077;-80
2020/12/28 05:47:41;;;;;;;0.30;0.30;;;12.10;52.40;;;;;;6253997;28;20033;-80
2020/12/28 05:50:44;;;;;;;0.52;0.40;;;12.10;52.40;;;;;;6255989;28;20057;-79
2020/12/28 05:53:47;;;;;;;0.38;0.30;;;12.10;52.60;;;;;;6253356;28;20124;-79
2020/12/28 05:56:48;;;;;;;0.55;0.38;;;12.10;52.70;;;;;;6259784;28;20045;-81
2020/12/28 05:59:49;;;;;;;2.63;0.45;;;12.00;52.90;;;;;;6259226;28;20088;-80
2020/12/28 06:02:50;;;;;;;0.30;0.30;;;12.00;53.10;;;;;;6265542;28;20045;-81
2020/12/28 06:05:55;;;;;;;0.68;0.50;;;11.90;53.40;;;;;;6262997;28;20144;-79
2020/12/28 06:08:56;;;;;;;0.70;0.50;;;11.90;53.50;;;;;;6248836;28;20061;-80
2020/12/28 06:12:09;;;;;;;0.38;0.30;;;11.80;53.60;;;;;;6262693;28;20130;-80
2020/12/28 06:15:20;;;;;;;0.52;0.45;;;11.80;53.70;;;;;;6259997;28;20540;-82
2020/12/28 06:18:21;;;;;;;1.55;0.60;;;11.70;54.40;;;;;;6230803;28;20462;-81
2020/12/28 06:21:22;;;;;;;0.82;0.40;;;11.60;54.50;;;;;;6233676;28;20092;-81
2020/12/28 06:24:31;;;;;;;4.63;0.63;;;11.60;54.60;;;;;;6235709;28;20029;-81
2020/12/28 06:27:33;;;;;;;;;;;11.50;54.70;;;;;;6221718;28;20029;-80
2020/12/28 06:30:33;;;;;;;0.22;0.20;;;11.50;54.90;;;;;;6237387;28;19917;-81
2020/12/28 06:33:34;;;;;;;1.15;0.57;;;11.50;54.90;;;;;;6219942;28;20104;-80
2020/12/28 06:36:35;;;;;;;0.68;0.43;;;11.50;55.00;;;;;;6237556;28;20056;-81
2020/12/28 06:39:36;;;;;;;2.13;1.05;;;11.50;55.10;;;;;;6239573;28;20116;-80
2020/12/28 06:42:37;;;;;;;0.88;0.60;;;11.50;55.30;;;;;;6241602;28;20087;-83
2020/12/28 06:45:39;;;;;;;2.47;0.68;;;11.40;55.30;;;;;;6237394;28;20549;-80
2020/12/28 06:48:44;;;;;;;1.92;0.60;;;11.50;55.30;;;;;;6215372;28;20029;-80
2020/12/28 06:51:44;;;;;;;2.55;0.50;;;11.50;55.30;;;;;;6222149;28;20045;-81
2020/12/28 06:54:45;;;;;;;2.78;0.95;;;11.50;55.80;;;;;;6254620;28;20419;-80
2020/12/28 06:57:47;;;;;;;0.73;0.65;;;11.50;55.10;;;;;;6246211;28;20040;-81
2020/12/28 07:00:57;;;;;;;1.63;1.50;;;11.50;55.90;;;;;;6254468;28;20044;-81
2020/12/28 07:03:58;;;;;;;2.55;1.35;;;11.50;55.40;;;;;;6263032;28;20037;-81
2020/12/28 07:07:01;;;;;;;3.95;1.00;;;11.50;55.50;;;;;;6254331;28;20041;-82
2020/12/28 07:10:02;;;;;;;2.20;0.88;;;11.40;55.60;;;;;;6262271;28;20041;-81
2020/12/28 07:13:07;;;;;;;1.00;0.90;;;11.40;55.80;;;;;;6240271;28;20045;-80
2020/12/28 07:16:08;;;;;;;3.10;0.90;;;11.40;55.80;;;;;;6233501;28;20051;-81
2020/12/28 07:19:09;;;;;;;1.83;1.13;;;11.40;55.80;;;;;;6245683;28;20045;-81
2020/12/28 07:22:10;;;;;;;1.50;0.75;;;11.40;55.90;;;;;;6248216;28;20101;-82
2020/12/28 07:25:13;;;;;;;1.17;0.80;;;11.40;55.90;;;;;;6242131;28;20123;-82
2020/12/28 07:28:13;;;;;;;0.70;0.60;;;11.50;55.90;;;;;;6265945;28;20044;-79
2020/12/28 07:31:14;;;;;;;5.10;0.93;;;11.50;55.70;;;;;;6262362;28;20037;-79
2020/12/28 07:34:17;;;;;;;1.13;0.70;;;11.60;55.70;;;;;;6264813;28;20033;-79
2020/12/28 07:37:19;;;;;;;1.95;0.90;;;11.60;55.70;;;;;;6265198;28;20033;-80
2020/12/28 07:40:20;;;;;;;0.95;0.50;;;11.60;55.60;;;;;;6262817;28;20029;-81
2020/12/28 07:43:21;;;;;;;1.80;0.43;;;11.60;55.50;;;;;;6254561;28;20028;-79
2020/12/28 07:46:31;;;;;;;3.42;0.90;;;11.70;55.30;;;;;;6253897;28;20068;-81
2020/12/28 07:49:37;;;;;;;3.80;0.85;;;11.70;55.20;;;;;;6258778;28;20132;-81
2020/12/28 07:53:06;;;;;;;1.77;0.82;;;11.80;55.20;;;;;;6218883;28;20046;-82
2020/12/28 07:56:16;;;;;;;2.42;0.82;;;11.80;55.10;;;;;;6252937;28;20034;-85
2020/12/28 07:59:29;;;;;;;2.90;1.17;;;11.90;55.10;;;;;;6221976;28;20033;-89
2020/12/28 08:02:58;;;;;;;7.72;1.88;;;11.90;55.00;;;;;;6238098;28;20347;-86
2020/12/28 08:06:05;;;;;;;3.17;1.38;;;11.90;55.10;;;;;;6266247;28;20033;-84
2020/12/28 08:09:06;;;;;;;1.13;0.40;;;11.90;55.00;;;;;;6269621;28;20029;-88
2020/12/28 08:12:10;;;;;;;1.45;0.63;;;11.90;54.80;;;;;;6260676;28;20060;-89
2020/12/28 08:15:11;;;;;;;0.38;0.28;;;11.90;54.80;;;;;;6260610;28;20101;-86
2020/12/28 08:18:14;;;;;;;1.67;0.55;;;11.90;54.80;;;;;;6265797;28;20053;-87
2020/12/28 08:21:15;;;;;;;0.30;0.30;;;11.90;54.70;;;;;;6245766;28;20025;-87
2020/12/28 08:24:17;;;;;;;0.38;0.30;;;12.00;54.60;;;;;;6248950;28;20034;-88
2020/12/28 08:27:18;;;;;;;3.20;0.35;;;12.00;54.60;;;;;;6241134;28;20041;-89
2020/12/28 08:30:19;;;;;;;0.60;0.22;;;12.10;54.40;;;;;;6259593;28;20083;-88
2020/12/28 08:33:20;;;;;;;1.52;0.70;;;12.10;54.20;;;;;;6260329;28;20452;-88
2020/12/28 08:36:24;;;;;;;1.70;0.75;;;12.20;54.70;;;;;;6270595;28;20052;-86
2020/12/28 08:39:26;;;;;;;2.00;0.95;;;12.20;54.00;;;;;;6256557;28;21560;-85
2020/12/28 08:42:33;;;;;;;2.90;1.17;;;12.20;53.40;;;;;;6244671;28;20045;-87
2020/12/28 08:45:35;;;;;;;3.05;0.68;;;12.30;52.80;;;;;;6241745;28;20354;-85
2020/12/28 08:48:36;;;;;;;3.20;0.82;;;12.40;52.60;;;;;;6215104;28;20063;-88
2020/12/28 08:51:37;;;;;;;4.30;0.90;;;12.50;52.30;;;;;;6221938;28;20061;-86
2020/12/28 08:54:41;;;;;;;1.42;0.90;;;12.60;51.80;;;;;;6227335;28;20054;-86
2020/12/28 08:58:17;;;;;;;2.25;0.68;;;12.60;51.50;;;;;;6240488;28;20129;-85
2020/12/28 09:01:18;;;;;;;3.35;1.35;;;12.60;51.60;;;;;;6229775;28;20061;-86
2020/12/28 09:04:24;;;;;;;3.45;1.80;;;12.60;51.80;;;;;;6237461;28;20071;-93
2020/12/28 09:07:25;;;;;;;2.95;1.50;;;12.60;52.30;;;;;;6237116;28;20053;-93
2020/12/28 09:10:27;;;;;;;3.40;1.40;;;12.60;52.40;;;;;;6250681;28;20057;-95
2020/12/28 09:13:29;;;;;;;1.50;0.90;;;12.60;52.50;;;;;;6257817;28;20056;-93
2020/12/28 09:16:30;;;;;;;2.55;0.98;;;12.60;52.60;;;;;;6273968;28;20041;-94
2020/12/28 09:19:32;;;;;;;1.83;0.77;;;12.60;52.50;;;;;;6230439;28;20036;-94
2020/12/28 09:22:34;;;;;;;1.15;0.93;;;12.60;52.30;;;;;;6243910;28;20033;-94
2020/12/28 09:25:36;;;;;;;4.78;0.32;;;12.70;52.10;;;;;;6230967;28;20069;-91
2020/12/28 09:28:38;;;;;;;0.60;0.25;;;12.70;50.60;;;;;;6255575;28;20067;-91
2020/12/28 09:31:39;;;;;;;0.38;0.30;;;12.90;48.10;;;;;;6248563;28;20022;-90
2020/12/28 09:34:40;;;;;;;4.95;0.60;;;13.00;45.80;;;;;;6250274;28;20033;-90
2020/12/28 09:37:41;;;;;;;21.83;10.35;;;13.10;45.00;;;;;;6252598;28;20029;-90
2020/12/28 09:40:42;;;;;;;1.40;0.60;;;13.20;44.40;;;;;;6251255;28;20025;-90
2020/12/28 09:43:44;;;;;;;0.77;0.50;;;13.30;42.80;;;;;;6250159;28;20462;-85
2020/12/28 09:46:45;;;;;;;5.13;0.85;;;13.30;42.90;;;;;;6244372;28;20439;-87
2020/12/28 09:49:46;;;;;;;0.45;0.32;;;13.30;42.50;;;;;;6246526;28;20037;-87
2020/12/28 09:52:48;;;;;;;2.13;0.63;;;13.30;42.20;;;;;;6241790;28;20508;-89
2020/12/28 09:55:50;;;;;;;0.40;0.22;;;13.30;41.20;;;;;;6241914;28;20041;-89
2020/12/28 09:58:50;;;;;;;0.40;0.35;;;13.30;40.20;;;;;;6264366;28;20120;-79
2020/12/28 10:01:51;;;;;;;0.60;0.10;;;13.40;39.80;;;;;;6252902;28;20067;-80
2020/12/28 10:04:52;;;;;;;0.45;0.22;;;13.40;38.90;;;;;;6263507;28;20056;-79
2020/12/28 10:07:53;;;;;;;0.20;0.20;;;13.50;39.10;;;;;;6253770;28;20041;-87
2020/12/28 10:10:54;;;;;;;1.20;0.38;;;13.60;38.90;;;;;;6226390;28;21176;-86
2020/12/28 10:13:55;;;;;;;0.63;0.40;;;13.60;38.00;;;;;;6231176;28;20540;-87
2020/12/28 10:16:56;;;;;;;0.00;0.00;;;13.70;38.10;;;;;;6238167;28;20030;-87
2020/12/28 10:19:57;;;;;;;0.15;0.10;;;13.70;38.20;;;;;;6222500;28;20040;-88
2020/12/28 10:22:58;;;;;;;1.05;0.43;;;13.70;37.80;;;;;;6220076;28;20060;-86
2020/12/28 10:26:16;;;;;;;0.68;0.40;;;13.80;38.20;;;;;;6222479;28;20060;-86
2020/12/28 10:29:17;;;;;;;2.45;0.40;;;13.80;37.80;;;;;;6213131;28;20108;-86
2020/12/28 10:32:18;;;;;;;1.15;0.35;;;14.00;37.50;;;;;;6223472;28;20040;-85
2020/12/28 10:35:19;;;;;;;0.57;0.30;;;14.10;37.60;;;;;;6210503;28;20025;-85
2020/12/28 10:38:20;;;;;;;0.30;0.20;;;14.20;37.70;;;;;;6209625;28;20037;-85
2020/12/28 10:41:47;;;;;;;0.38;0.22;;;14.30;38.00;;;;;;6222241;28;20040;-85
2020/12/28 10:44:48;;;;;;;0.88;0.40;;;14.40;38.10;;;;;;6239851;28;20300;-85
2020/12/28 10:47:54;;;;;;;0.63;0.30;;;14.60;37.40;;;;;;6260439;28;20037;-85
2020/12/28 10:50:55;;;;;;;0.52;0.10;;;14.50;36.80;;;;;;6262974;28;20116;-84
2020/12/28 10:53:56;;;;;;;0.52;0.30;;;14.50;36.30;;;;;;6264164;28;20097;-86
2020/12/28 10:56:57;;;;;;;0.15;0.13;;;14.50;35.30;;;;;;6263829;28;20041;-85
2020/12/28 10:59:59;;;;;;;2.70;0.30;;;14.80;34.70;;;;;;6267618;28;20033;-85
2020/12/28 11:03:00;;;;;;;0.40;0.17;;;15.00;32.50;;;;;;6253319;28;20044;-86
2020/12/28 11:06:02;;;;;;;4.20;0.20;;;15.30;30.60;;;;;;6284876;28;20076;-85
2020/12/28 11:09:03;;;;;;;0.20;0.20;;;15.30;30.00;;;;;;6280391;28;20029;-85
2020/12/28 11:12:05;;;;;;;0.10;0.10;;;15.30;30.00;;;;;;6274844;28;20072;-82
2020/12/28 11:15:06;;;;;;;0.20;0.20;;;15.70;30.10;;;;;;6273689;28;20034;-82
2020/12/28 11:18:07;;;;;;;0.52;0.30;;;16.40;30.00;;;;;;6229141;28;20037;-80
2020/12/28 11:21:08;;;;;;;0.55;0.20;;;17.20;29.10;;;;;;6261403;28;20029;-81
2020/12/28 11:24:09;;;;;;;0.28;0.17;;;17.80;28.10;;;;;;6221564;28;20056;-82
2020/12/28 11:27:10;;;;;;;0.45;0.22;;;18.30;27.30;;;;;;6229764;28;20068;-79
2020/12/28 11:30:11;;;;;;;0.03;0.03;;;18.60;25.90;;;;;;6244259;28;20064;-75
2020/12/28 11:33:12;;;;;;;0.82;0.20;;;18.80;25.80;;;;;;6248559;28;20049;-78
2020/12/28 11:36:14;;;;;;;0.77;0.50;;;19.10;25.50;;;;;;6266621;28;20414;-81
2020/12/28 11:39:15;;;;;;;0.30;0.20;;;19.30;24.40;;;;;;6256884;28;20041;-78
2020/12/28 11:42:18;;;;;;;0.17;0.08;;;19.30;24.60;;;;;;6258056;28;20041;-79
2020/12/28 11:45:21;;;;;;;1.73;0.20;;;18.80;25.00;;;;;;6254144;28;20033;-84
2020/12/28 11:48:22;;;;;;;0.00;0.00;;;18.30;25.40;;;;;;6250146;28;20119;-75
2020/12/28 11:51:23;;;;;;;0.00;0.00;;;17.80;25.00;;;;;;6262282;28;20052;-75
2020/12/28 11:54:24;;;;;;;0.05;0.03;;;17.30;25.60;;;;;;6241812;28;20057;-75
2020/12/28 11:57:25;;;;;;;0.45;0.30;;;16.80;26.10;;;;;;6259959;28;20644;-76
2020/12/28 12:00:26;;;;;;;1.15;0.30;;;16.40;26.70;;;;;;6260573;28;20505;-76
2020/12/28 12:03:30;;;;;;;0.60;0.20;;;16.10;27.10;;;;;;6254952;28;20051;-77
2020/12/28 12:06:31;;;;;;;0.77;0.28;;;15.90;27.40;;;;;;6229034;28;20096;-77
2020/12/28 12:09:35;;;;;;;0.65;0.20;;;15.80;28.00;;;;;;6236411;28;20116;-78
2020/12/28 12:12:37;;;;;;;0.38;0.22;;;15.70;28.30;;;;;;6222939;28;20339;-76
2020/12/28 12:15:43;;;;;;;1.60;0.20;;;15.60;28.60;;;;;;6211278;28;20038;-76
2020/12/28 12:18:44;;;;;;;3.00;0.45;;;15.50;28.90;;;;;;6215483;28;20037;-76
2020/12/28 12:21:45;;;;;;;0.60;0.05;;;15.40;28.60;;;;;;6219384;28;20120;-76
2020/12/28 12:24:47;;;;;;;0.82;0.30;;;15.30;28.30;;;;;;6230503;28;20044;-77
2020/12/28 12:27:48;;;;;;;0.45;0.20;;;15.20;28.50;;;;;;6227359;28;20081;-76
2020/12/28 12:30:49;;;;;;;1.80;0.20;;;15.20;28.70;;;;;;6256483;28;20458;-78
2020/12/28 12:33:50;;;;;;;0.10;0.10;;;15.30;29.00;;;;;;6255962;28;20033;-79
2020/12/28 12:36:52;;;;;;;0.50;0.40;;;15.30;29.00;;;;;;6252004;28;20061;-80
2020/12/28 12:39:53;;;;;;;1.17;0.50;;;15.30;29.30;;;;;;6250586;28;20034;-78
2020/12/28 12:42:54;;;;;;;1.42;0.30;;;15.30;29.30;;;;;;6254856;28;20128;-78
2020/12/28 12:45:54;;;;;;;0.45;0.40;;;15.20;29.50;;;;;;6222304;28;20143;-79
2020/12/28 12:49:33;;;;;;;0.60;0.40;;;15.30;29.60;;;;;;6234084;28;20041;-79
2020/12/28 12:53:23;;;;;;;1.73;0.13;;;15.20;29.70;;;;;;6127272;28;20202;-81
2020/12/28 12:56:24;;;;;;;0.22;0.20;;;15.20;29.50;;;;;;6096964;29;20112;-80
2020/12/28 12:59:26;;;;;;;0.28;0.20;;;15.20;29.20;;;;;;6114132;29;20100;-80
2020/12/28 13:06:00;;;;;;;0.88;0.30;;;15.00;29.80;;;;;;6075093;28;20058;-78
2020/12/28 13:09:31;;;;;;;;;;;;;;;;;;;;;
2020/12/28 13:13:19;;;;;;;0.30;0.25;;;15.10;30.20;;;;;;6093948;28;20043;-79
2020/12/28 13:17:15;;;;;;;;;;;;;;;;;;;;;
2020/12/28 13:20:59;;;;;;;1.52;0.70;;;15.10;30.10;;;;;;6044027;29;20069;-80
2020/12/28 13:29:00;;;;;;;2.58;1.17;;;15.10;30.00;;;;;;5810910;29;20510;-80
2020/12/28 13:32:02;;;;;;;1.55;0.30;;;15.10;30.00;;;;;;5880844;30;20032;-80
2020/12/28 13:35:04;;;;;;;1.30;0.40;;;15.10;30.00;;;;;;5932689;29;20042;-80
2020/12/28 13:38:06;;;;;;;2.10;0.77;;;15.10;30.00;;;;;;6030317;29;20463;-80
2020/12/28 13:41:08;;;;;;;0.60;0.30;;;15.00;30.00;;;;;;6051546;29;20092;-81
2020/12/28 13:48:37;;;;;;;0.47;0.20;;;14.90;30.00;;;;;;6028990;29;20045;-80
2020/12/28 13:51:51;;;;;;;2.08;0.20;;;14.90;30.10;;;;;;6037826;29;20128;-80
2020/12/28 13:54:52;;;;;;;2.20;0.50;;;14.80;30.00;;;;;;6040416;29;20180;-80
2020/12/28 13:57:53;;;;;;;0.77;0.32;;;14.70;30.00;;;;;;6035877;29;20041;-80
2020/12/28 14:00:56;;;;;;;0.45;0.45;;;14.70;30.00;;;;;;6030377;29;20045;-79
2020/12/28 14:03:57;;;;;;;0.28;0.15;;;14.70;30.00;;;;;;6046248;28;20247;-79
2020/12/28 14:06:58;;;;;;;2.00;0.25;;;14.60;29.80;;;;;;6249661;28;20482;-80
2020/12/28 14:09:59;;;;;;;2.40;0.30;;;14.50;29.60;;;;;;6269899;28;20044;-79
2020/12/28 14:13:01;;;;;;;0.50;0.40;;;14.50;29.80;;;;;;6228132;28;20037;-80
2020/12/28 14:16:02;;;;;;;0.65;0.40;;;14.50;30.00;;;;;;6247033;28;20086;-78
2020/12/28 14:19:03;;;;;;;1.27;0.32;;;14.50;30.30;;;;;;6270388;28;20377;-79
2020/12/28 14:22:04;;;;;;;1.38;0.73;;;14.60;30.20;;;;;;6264455;28;20059;-81
2020/12/28 14:25:05;;;;;;;1.17;0.60;;;14.60;30.00;;;;;;6263751;28;20040;-79
2020/12/28 14:28:53;;;;;;;0.60;0.40;;;14.60;30.10;;;;;;6268897;28;20032;-79
2020/12/28 14:31:55;;;;;;;0.47;0.30;;;14.60;30.10;;;;;;6231964;28;20090;-79
2020/12/28 14:34:58;;;;;;;0.93;0.43;;;14.60;29.80;;;;;;6261391;28;20045;-79
2020/12/28 14:38:11;;;;;;;1.35;0.65;;;14.50;29.80;;;;;;6239674;28;20038;-79
2020/12/28 14:41:14;;;;;;;2.10;0.32;;;14.50;29.90;;;;;;6284941;28;20061;-78
2020/12/28 14:44:16;;;;;;;1.92;1.00;;;14.50;30.00;;;;;;6263365;28;20075;-76
2020/12/28 14:47:37;;;;;;;3.10;0.95;;;14.40;30.00;;;;;;6284113;28;20100;-77
2020/12/28 14:50:51;;;;;;;4.43;1.10;;;14.40;30.00;;;;;;6241341;28;20108;-78
2020/12/28 14:54:04;;;;;;;0.43;0.38;;;14.30;30.00;;;;;;6245229;28;20053;-81
2020/12/28 14:57:16;;;;;;;0.60;0.30;;;14.40;30.00;;;;;;6209641;28;20053;-82
2020/12/28 15:00:17;;;;;;;0.17;0.17;;;14.20;30.00;;;;;;6277175;28;20060;-80
2020/12/28 15:03:24;;;;;;;1.05;0.60;;;14.30;29.70;;;;;;6246065;28;20041;-83
2020/12/28 15:06:35;;;;;;;0.22;0.22;;;14.20;29.50;;;;;;6248264;28;20086;-83
2020/12/28 15:09:40;;;;;;;0.65;0.30;;;14.20;29.50;;;;;;6231230;28;20045;-84
2020/12/28 15:12:41;;;;;;;0.15;0.15;;;14.20;29.70;;;;;;6237308;28;20524;-84
2020/12/28 15:15:43;;;;;;;0.73;0.50;;;14.10;29.80;;;;;;6277776;28;20134;-82
2020/12/28 15:18:49;;;;;;;0.52;0.30;;;14.10;29.50;;;;;;6264447;28;20128;-79
2020/12/28 15:21:53;;;;;;;0.90;0.20;;;14.10;29.40;;;;;;6247764;28;20044;-83
2020/12/28 15:24:54;;;;;;;0.95;0.30;;;14.00;29.40;;;;;;6267763;28;20044;-81
2020/12/28 15:28:06;;;;;;;1.65;1.02;;;14.00;29.20;;;;;;6260314;28;20128;-82
2020/12/28 15:31:11;;;;;;;0.98;0.77;;;14.00;29.30;;;;;;6225135;28;20032;-81
2020/12/28 15:34:41;;;;;;;1.80;0.80;;;14.00;29.20;;;;;;6284681;28;20068;-82
2020/12/28 15:37:57;;;;;;;;;;;;;;;;;;;;;
2020/12/28 15:41:03;;;;;;;1.15;0.50;;;13.90;29.60;;;;;;6257948;28;20033;-83
2020/12/28 15:44:05;;;;;;;1.30;0.50;;;13.90;29.80;;;;;;6274049;28;20036;-81
2020/12/28 15:47:16;;;;;;;1.40;0.70;;;13.90;30.00;;;;;;6275565;28;20033;-82
2020/12/28 15:50:17;;;;;;;0.65;0.38;;;13.80;30.00;;;;;;6257872;28;20106;-81
2020/12/28 15:53:18;;;;;;;2.47;0.50;;;13.90;30.00;;;;;;6274587;28;20029;-82
2020/12/28 15:56:24;;;;;;;1.58;0.60;;;13.80;30.10;;;;;;6261328;28;20406;-81
2020/12/28 15:59:27;;;;;;;0.63;0.45;;;13.80;30.20;;;;;;6253498;28;20039;-81
2020/12/28 16:02:29;;;;;;;2.72;0.85;;;13.80;30.80;;;;;;6229682;28;20037;-83
2020/12/28 16:05:30;;;;;;;2.33;0.70;;;13.70;30.30;;;;;;6248996;28;20033;-83
2020/12/28 16:08:32;;;;;;;0.88;0.47;;;13.70;30.50;;;;;;6224767;28;20036;-82
2020/12/28 16:11:33;;;;;;;1.08;0.57;;;13.70;30.50;;;;;;6244236;28;20112;-82
2020/12/28 16:14:39;;;;;;;2.28;0.68;;;13.60;30.60;;;;;;6246071;28;20109;-82
2020/12/28 16:17:46;;;;;;;2.08;1.00;;;13.60;30.70;;;;;;6246201;28;20043;-82
2020/12/28 16:20:56;;;;;;;2.83;1.38;;;13.50;30.50;;;;;;6235342;28;20026;-81
2020/12/28 16:23:57;;;;;;;9.18;2.58;;;13.50;30.70;;;;;;6208000;28;20077;-82
2020/12/28 16:27:05;;;;;;;3.33;1.38;;;13.50;30.90;;;;;;6248410;28;20089;-82